createdAt,value
2023-05-26T00:00:22.549Z,16.28
2023-05-26T00:01:22.445Z,16.38
2023-05-26T00:02:22.418Z,16.24
2023-05-26T00:03:22.450Z,16.24
2023-05-26T00:04:22.278Z,16.29
2023-05-26T00:05:22.127Z,16.26
2023-05-26T00:06:22.101Z,16.32
2023-05-26T00:07:21.980Z,16.28
2023-05-26T00:08:21.897Z,16.29
2023-05-26T00:09:21.866Z,16.29
2023-05-26T00:10:21.753Z,16.29
2023-05-26T00:11:21.661Z,16.31
2023-05-26T00:12:21.584Z,16.26
2023-05-26T00:13:21.512Z,16.24
2023-05-26T00:14:21.434Z,16.24
2023-05-26T00:15:21.369Z,16.23
2023-05-26T00:16:21.300Z,16.31
2023-05-26T00:17:21.200Z,16.24
2023-05-26T00:18:21.201Z,16.17
2023-05-26T00:19:21.042Z,16.21
2023-05-26T00:20:21.002Z,16.20
2023-05-26T00:21:20.904Z,16.15
2023-05-26T00:22:20.829Z,16.09
2023-05-26T00:23:20.734Z,16.15
2023-05-26T00:24:20.657Z,16.13
2023-05-26T00:25:20.570Z,16.13
2023-05-26T00:26:20.516Z,16.17
2023-05-26T00:27:20.416Z,16.15
2023-05-26T00:28:20.339Z,16.05
2023-05-26T00:29:29.205Z,16.10
2023-05-26T00:30:20.185Z,16.12
2023-05-26T00:31:20.161Z,16.08
2023-05-26T00:32:20.033Z,16.09
2023-05-26T00:33:19.953Z,16.04
2023-05-26T00:34:19.871Z,16.05
2023-05-26T00:35:19.817Z,16.08
2023-05-26T00:36:19.715Z,16.05
2023-05-26T00:37:19.652Z,16.09
2023-05-26T00:38:19.558Z,16.04
2023-05-26T00:39:19.489Z,16.00
2023-05-26T00:40:19.398Z,15.95
2023-05-26T00:41:19.328Z,15.94
2023-05-26T00:42:19.247Z,15.94
2023-05-26T00:43:19.163Z,15.95
2023-05-26T00:44:19.086Z,16.00
2023-05-26T00:45:19.011Z,15.98
2023-05-26T00:46:18.930Z,15.88
2023-05-26T00:47:18.892Z,15.94
2023-05-26T00:48:18.793Z,15.98
2023-05-26T00:49:18.696Z,15.90
2023-05-26T00:50:18.622Z,15.90
2023-05-26T00:51:18.541Z,15.84
2023-05-26T00:52:18.470Z,15.84
2023-05-26T00:53:18.384Z,15.84
2023-05-26T00:54:18.310Z,15.76
2023-05-26T00:55:18.230Z,15.80
2023-05-26T00:56:18.155Z,15.77
2023-05-26T00:57:18.083Z,15.80
2023-05-26T00:58:17.987Z,15.77
2023-05-26T00:59:17.909Z,15.82
2023-05-26T01:00:17.841Z,15.70
2023-05-26T01:01:17.803Z,15.73
2023-05-26T01:02:17.727Z,15.72
2023-05-26T01:03:17.634Z,15.67
2023-05-26T01:04:17.516Z,15.73
2023-05-26T01:05:17.442Z,15.75
2023-05-26T01:06:17.369Z,15.68
2023-05-26T01:07:17.287Z,15.68
2023-05-26T01:08:17.230Z,15.73
2023-05-26T01:09:17.133Z,15.75
2023-05-26T01:10:17.047Z,15.73
2023-05-26T01:11:16.971Z,15.68
2023-05-26T01:12:16.896Z,15.64
2023-05-26T01:13:16.822Z,15.77
2023-05-26T01:14:16.744Z,15.70
2023-05-26T01:15:16.672Z,15.73
2023-05-26T01:16:16.620Z,15.72
2023-05-26T01:17:16.500Z,15.68
2023-05-26T01:18:16.440Z,15.70
2023-05-26T01:19:16.349Z,15.72
2023-05-26T01:20:16.323Z,15.68
2023-05-26T01:21:16.197Z,15.67
2023-05-26T01:22:16.112Z,15.72
2023-05-26T01:23:16.035Z,15.72
2023-05-26T01:24:15.957Z,15.75
2023-05-26T01:25:15.881Z,15.70
2023-05-26T01:26:15.797Z,15.76
2023-05-26T01:27:15.721Z,15.70
2023-05-26T01:28:15.652Z,15.70
2023-05-26T01:29:15.563Z,15.72
2023-05-26T01:30:15.494Z,15.75
2023-05-26T01:31:15.417Z,15.70
2023-05-26T01:32:15.335Z,15.65
2023-05-26T01:33:15.351Z,15.70
2023-05-26T01:34:15.190Z,15.73
2023-05-26T01:35:15.102Z,15.65
2023-05-26T01:36:15.018Z,15.64
2023-05-26T01:37:15.723Z,15.55
2023-05-26T01:38:14.863Z,15.64
2023-05-26T01:39:14.781Z,15.67
2023-05-26T01:40:14.719Z,15.62
2023-05-26T01:41:14.628Z,15.76
2023-05-26T01:42:29.829Z,15.79
2023-05-26T01:43:14.469Z,15.72
2023-05-26T01:44:14.390Z,15.72
2023-05-26T01:45:14.312Z,15.73
2023-05-26T01:46:14.264Z,15.76
2023-05-26T01:47:14.168Z,15.72
2023-05-26T01:48:14.076Z,15.75
2023-05-26T01:49:13.999Z,15.80
2023-05-26T01:50:13.924Z,15.83
2023-05-26T01:51:14.116Z,15.77
2023-05-26T01:52:13.781Z,15.82
2023-05-26T01:53:13.687Z,15.76
2023-05-26T01:54:13.604Z,15.84
2023-05-26T01:55:13.531Z,15.91
2023-05-26T01:56:13.454Z,15.84
2023-05-26T01:57:13.369Z,15.86
2023-05-26T01:58:13.295Z,15.76
2023-05-26T01:59:13.218Z,15.82
2023-05-26T02:00:13.152Z,15.80
2023-05-26T02:01:13.067Z,15.79
2023-05-26T02:02:13.027Z,15.83
2023-05-26T02:03:13.001Z,15.88
2023-05-26T02:04:12.828Z,15.88
2023-05-26T02:05:12.743Z,15.88
2023-05-26T02:06:12.667Z,15.86
2023-05-26T02:07:12.590Z,15.90
2023-05-26T02:08:12.513Z,15.88
2023-05-26T02:09:12.433Z,15.91
2023-05-26T02:10:12.359Z,15.94
2023-05-26T02:11:12.277Z,15.91
2023-05-26T02:12:12.198Z,15.91
2023-05-26T02:13:12.127Z,15.92
2023-05-26T02:14:12.038Z,15.94
2023-05-26T02:15:11.989Z,15.86
2023-05-26T02:16:11.923Z,15.86
2023-05-26T02:17:11.851Z,15.91
2023-05-26T02:18:11.807Z,15.90
2023-05-26T02:19:11.655Z,15.94
2023-05-26T02:20:11.585Z,15.97
2023-05-26T02:21:11.497Z,15.95
2023-05-26T02:22:11.409Z,15.98
2023-05-26T02:23:11.340Z,15.98
2023-05-26T02:24:11.265Z,16.01
2023-05-26T02:25:11.179Z,15.98
2023-05-26T02:26:11.106Z,15.92
2023-05-26T02:27:11.029Z,16.00
2023-05-26T02:28:10.941Z,15.98
2023-05-26T02:29:10.866Z,16.01
2023-05-26T02:30:10.801Z,15.91
2023-05-26T02:31:10.791Z,16.00
2023-05-26T02:32:10.662Z,15.86
2023-05-26T02:33:10.586Z,15.90
2023-05-26T02:34:10.475Z,15.91
2023-05-26T02:35:10.396Z,15.91
2023-05-26T02:36:10.322Z,15.84
2023-05-26T02:37:10.235Z,15.90
2023-05-26T02:38:10.160Z,15.92
2023-05-26T02:39:10.088Z,15.88
2023-05-26T02:40:10.005Z,15.82
2023-05-26T02:41:09.960Z,15.76
2023-05-26T02:42:09.852Z,15.80
2023-05-26T02:43:09.767Z,15.80
2023-05-26T02:44:09.690Z,15.84
2023-05-26T02:45:09.612Z,15.80
2023-05-26T02:46:09.574Z,15.77
2023-05-26T02:47:09.499Z,15.80
2023-05-26T02:48:09.479Z,15.79
2023-05-26T02:49:09.296Z,15.83
2023-05-26T02:50:09.219Z,15.79
2023-05-26T02:51:09.142Z,15.73
2023-05-26T02:52:09.068Z,15.75
2023-05-26T02:53:08.980Z,15.72
2023-05-26T02:54:08.911Z,15.76
2023-05-26T02:55:08.839Z,15.72
2023-05-26T02:56:08.755Z,15.70
2023-05-26T02:57:08.668Z,15.72
2023-05-26T02:58:08.594Z,15.70
2023-05-26T02:59:08.511Z,15.68
2023-05-26T03:00:08.437Z,15.70
2023-05-26T03:01:08.399Z,15.72
2023-05-26T03:02:08.304Z,15.76
2023-05-26T03:03:08.299Z,15.80
2023-05-26T03:04:08.125Z,15.76
2023-05-26T03:05:08.047Z,15.73
2023-05-26T03:06:07.984Z,15.65
2023-05-26T03:07:07.889Z,15.65
2023-05-26T03:08:07.852Z,15.67
2023-05-26T03:09:07.728Z,15.67
2023-05-26T03:10:07.678Z,15.68
2023-05-26T03:11:10.418Z,15.72
2023-05-26T03:12:07.510Z,15.62
2023-05-26T03:13:07.422Z,15.70
2023-05-26T03:14:07.351Z,15.61
2023-05-26T03:15:07.272Z,15.59
2023-05-26T03:16:07.188Z,15.59
2023-05-26T03:17:07.179Z,15.62
2023-05-26T03:18:07.058Z,15.64
2023-05-26T03:19:06.955Z,15.54
2023-05-26T03:20:06.908Z,15.57
2023-05-26T03:21:06.795Z,15.59
2023-05-26T03:22:38.165Z,15.58
2023-05-26T03:23:06.647Z,15.65
2023-05-26T03:24:06.558Z,15.68
2023-05-26T03:25:06.481Z,15.58
2023-05-26T03:26:06.398Z,15.64
2023-05-26T03:27:06.320Z,15.59
2023-05-26T03:28:06.265Z,15.65
2023-05-26T03:29:06.186Z,15.57
2023-05-26T03:30:06.092Z,15.55
2023-05-26T03:31:06.030Z,15.51
2023-05-26T03:32:05.935Z,15.52
2023-05-26T03:33:05.880Z,15.57
2023-05-26T03:34:05.791Z,15.49
2023-05-26T03:35:05.698Z,15.57
2023-05-26T03:36:05.615Z,15.52
2023-05-26T03:37:05.569Z,15.49
2023-05-26T03:38:05.462Z,15.54
2023-05-26T03:39:05.379Z,15.43
2023-05-26T03:40:05.306Z,15.43
2023-05-26T03:41:05.238Z,15.49
2023-05-26T03:42:05.151Z,15.40
2023-05-26T03:43:05.069Z,15.36
2023-05-26T03:44:04.990Z,15.37
2023-05-26T03:45:04.925Z,15.25
2023-05-26T03:46:04.853Z,15.31
2023-05-26T03:47:04.752Z,15.19
2023-05-26T03:48:04.702Z,15.24
2023-05-26T03:49:04.600Z,15.22
2023-05-26T03:50:06.802Z,15.15
2023-05-26T03:51:04.441Z,15.18
2023-05-26T03:52:04.363Z,15.18
2023-05-26T03:53:04.297Z,15.24
2023-05-26T03:54:04.206Z,15.15
2023-05-26T03:55:04.123Z,15.21
2023-05-26T03:56:04.044Z,15.15
2023-05-26T03:57:03.975Z,15.17
2023-05-26T03:58:03.890Z,15.21
2023-05-26T03:59:03.807Z,15.14
2023-05-26T04:00:03.731Z,15.17
2023-05-26T04:01:03.656Z,15.19
2023-05-26T04:02:03.598Z,15.15
2023-05-26T04:03:03.581Z,15.10
2023-05-26T04:04:03.445Z,15.17
2023-05-26T04:05:03.336Z,15.10
2023-05-26T04:06:03.258Z,15.10
2023-05-26T04:07:03.178Z,15.19
2023-05-26T04:08:03.104Z,15.17
2023-05-26T04:09:03.022Z,15.15
2023-05-26T04:10:02.946Z,15.11
2023-05-26T04:11:02.866Z,15.14
2023-05-26T04:12:02.790Z,15.14
2023-05-26T04:13:02.719Z,15.09
2023-05-26T04:14:02.635Z,15.10
2023-05-26T04:15:02.555Z,15.11
2023-05-26T04:16:02.532Z,15.17
2023-05-26T04:17:02.470Z,15.11
2023-05-26T04:18:02.372Z,15.10
2023-05-26T04:19:02.232Z,15.10
2023-05-26T04:20:04.133Z,15.17
2023-05-26T04:21:02.077Z,15.06
2023-05-26T04:22:01.997Z,15.17
2023-05-26T04:23:01.923Z,15.04
2023-05-26T04:24:01.851Z,15.11
2023-05-26T04:25:01.762Z,15.00
2023-05-26T04:26:01.683Z,15.03
2023-05-26T04:27:01.626Z,14.96
2023-05-26T04:28:01.527Z,14.92
2023-05-26T04:29:01.454Z,15.00
2023-05-26T04:30:01.385Z,14.94
2023-05-26T04:31:01.294Z,14.94
2023-05-26T04:32:01.235Z,15.00
2023-05-26T04:33:01.167Z,14.96
2023-05-26T04:34:01.061Z,14.89
2023-05-26T04:35:00.980Z,15.00
2023-05-26T04:36:00.915Z,15.02
2023-05-26T04:37:00.823Z,14.97
2023-05-26T04:38:00.746Z,14.97
2023-05-26T04:39:00.671Z,15.03
2023-05-26T04:40:00.604Z,15.17
2023-05-26T04:41:00.513Z,15.18
2023-05-26T04:42:00.463Z,15.17
2023-05-26T04:43:00.354Z,15.14
2023-05-26T04:44:00.282Z,15.17
2023-05-26T04:45:00.196Z,15.10
2023-05-26T04:46:00.173Z,15.17
2023-05-26T04:47:00.040Z,15.15
2023-05-26T04:47:59.999Z,15.18
2023-05-26T04:48:59.879Z,15.19
2023-05-26T04:49:59.806Z,15.18
2023-05-26T04:50:59.726Z,15.11
2023-05-26T04:51:59.644Z,15.24
2023-05-26T04:52:59.571Z,15.14
2023-05-26T04:53:59.483Z,15.29
2023-05-26T04:54:59.415Z,15.21
2023-05-26T04:55:59.332Z,15.28
2023-05-26T04:56:59.272Z,15.27
2023-05-26T04:57:59.175Z,15.29
2023-05-26T04:58:59.100Z,15.29
2023-05-26T04:59:59.018Z,15.24
2023-05-26T05:00:58.941Z,15.27
2023-05-26T05:01:58.924Z,15.35
2023-05-26T05:02:58.834Z,15.36
2023-05-26T05:03:58.732Z,15.35
2023-05-26T05:04:58.626Z,15.49
2023-05-26T05:05:58.555Z,15.42
2023-05-26T05:06:58.476Z,15.47
2023-05-26T05:07:58.388Z,15.47
2023-05-26T05:08:58.308Z,15.44
2023-05-26T05:09:58.259Z,15.51
2023-05-26T05:10:58.158Z,15.54
2023-05-26T05:11:58.073Z,15.52
2023-05-26T05:12:58.004Z,15.57
2023-05-26T05:13:57.915Z,15.51
2023-05-26T05:14:57.842Z,15.58
2023-05-26T05:15:57.772Z,15.61
2023-05-26T05:16:57.679Z,15.59
2023-05-26T05:17:57.660Z,15.59
2023-05-26T05:18:57.536Z,15.68
2023-05-26T05:20:13.517Z,15.65
2023-05-26T05:20:57.378Z,15.68
2023-05-26T05:21:57.304Z,15.72
2023-05-26T05:22:57.223Z,15.67
2023-05-26T05:23:57.144Z,15.75
2023-05-26T05:24:57.060Z,15.76
2023-05-26T05:25:56.980Z,15.75
2023-05-26T05:26:56.896Z,15.77
2023-05-26T05:27:56.823Z,15.83
2023-05-26T05:28:56.750Z,15.84
2023-05-26T05:29:56.676Z,15.77
2023-05-26T05:30:56.585Z,15.84
2023-05-26T05:31:56.573Z,15.79
2023-05-26T05:32:56.579Z,15.94
2023-05-26T05:33:56.352Z,15.86
2023-05-26T05:34:56.331Z,15.76
2023-05-26T05:35:56.244Z,15.90
2023-05-26T05:36:56.131Z,15.94
2023-05-26T05:37:56.044Z,15.95
2023-05-26T05:38:55.964Z,15.82
2023-05-26T05:39:55.882Z,16.00
2023-05-26T05:40:55.807Z,15.94
2023-05-26T05:41:55.759Z,15.97
2023-05-26T05:42:55.662Z,16.02
2023-05-26T05:43:55.576Z,16.02
2023-05-26T05:44:55.499Z,16.04
2023-05-26T05:45:55.416Z,16.05
2023-05-26T05:46:55.367Z,16.10
2023-05-26T05:47:55.326Z,16.04
2023-05-26T05:48:55.182Z,16.12
2023-05-26T05:49:55.107Z,16.08
2023-05-26T05:50:55.026Z,16.09
2023-05-26T05:51:54.950Z,16.15
2023-05-26T05:52:54.866Z,16.10
2023-05-26T05:53:54.798Z,16.17
2023-05-26T05:54:54.713Z,16.13
2023-05-26T05:55:54.638Z,16.12
2023-05-26T05:56:54.570Z,16.13
2023-05-26T05:57:54.499Z,16.09
2023-05-26T05:58:54.436Z,16.16
2023-05-26T05:59:54.319Z,16.17
2023-05-26T06:00:54.252Z,16.16
2023-05-26T06:01:54.212Z,16.29
2023-05-26T06:02:54.297Z,16.26
2023-05-26T06:03:54.055Z,16.26
2023-05-26T06:04:53.946Z,16.28
2023-05-26T06:05:53.859Z,16.29
2023-05-26T06:06:53.774Z,16.24
2023-05-26T06:07:53.696Z,16.31
2023-05-26T06:08:53.625Z,16.21
2023-05-26T06:09:53.551Z,16.35
2023-05-26T06:10:53.467Z,16.28
2023-05-26T06:11:53.388Z,16.46
2023-05-26T06:12:53.315Z,16.36
2023-05-26T06:13:53.232Z,16.42
2023-05-26T06:14:53.155Z,16.36
2023-05-26T06:15:53.083Z,16.49
2023-05-26T06:16:53.033Z,16.47
2023-05-26T06:17:52.934Z,16.50
2023-05-26T06:18:52.849Z,16.50
2023-05-26T06:19:52.905Z,16.53
2023-05-26T06:20:53.075Z,16.53
2023-05-26T06:21:52.609Z,16.61
2023-05-26T06:22:52.532Z,16.61
2023-05-26T06:23:52.452Z,16.65
2023-05-26T06:24:52.371Z,16.66
2023-05-26T06:25:52.298Z,16.65
2023-05-26T06:26:52.227Z,16.72
2023-05-26T06:27:52.148Z,16.74
2023-05-26T06:28:52.070Z,16.68
2023-05-26T06:29:51.991Z,16.76
2023-05-26T06:30:51.909Z,16.71
2023-05-26T06:31:51.940Z,16.81
2023-05-26T06:32:51.834Z,16.79
2023-05-26T06:33:51.686Z,16.81
2023-05-26T06:34:51.617Z,16.89
2023-05-26T06:35:51.526Z,16.89
2023-05-26T06:36:51.444Z,16.94
2023-05-26T06:37:51.384Z,16.96
2023-05-26T06:38:51.294Z,17.04
2023-05-26T06:39:51.214Z,17.01
2023-05-26T06:40:51.136Z,17.11
2023-05-26T06:41:51.057Z,17.08
2023-05-26T06:42:50.995Z,17.11
2023-05-26T06:43:50.906Z,17.09
2023-05-26T06:44:53.559Z,17.16
2023-05-26T06:45:50.754Z,17.23
2023-05-26T06:46:50.746Z,17.22
2023-05-26T06:47:50.661Z,17.31
2023-05-26T06:48:50.518Z,17.29
2023-05-26T06:49:50.444Z,17.38
2023-05-26T06:50:50.373Z,17.33
2023-05-26T06:51:50.282Z,17.34
2023-05-26T06:52:50.209Z,17.31
2023-05-26T06:53:50.148Z,17.41
2023-05-26T06:54:50.050Z,17.42
2023-05-26T06:55:49.981Z,17.45
2023-05-26T06:56:49.903Z,17.42
2023-05-26T06:57:49.819Z,17.51
2023-05-26T06:58:49.748Z,17.54
2023-05-26T06:59:49.658Z,17.52
2023-05-26T07:00:49.587Z,17.54
2023-05-26T07:01:49.521Z,17.60
2023-05-26T07:02:49.496Z,17.65
2023-05-26T07:03:49.355Z,17.64
2023-05-26T07:04:49.281Z,17.71
2023-05-26T07:05:57.124Z,17.80
2023-05-26T07:06:49.177Z,17.72
2023-05-26T07:07:49.056Z,17.70
2023-05-26T07:08:48.967Z,17.72
2023-05-26T07:09:48.882Z,17.83
2023-05-26T07:10:48.820Z,17.86
2023-05-26T07:11:48.739Z,17.85
2023-05-26T07:12:48.662Z,17.90
2023-05-26T07:13:48.583Z,17.98
2023-05-26T07:14:48.516Z,18.01
2023-05-26T07:15:48.434Z,18.05
2023-05-26T07:16:48.441Z,18.07
2023-05-26T07:17:48.301Z,18.00
2023-05-26T07:18:48.212Z,18.01
2023-05-26T07:19:48.133Z,18.13
2023-05-26T07:20:48.537Z,18.04
2023-05-26T07:21:47.970Z,18.19
2023-05-26T07:22:47.892Z,18.15
2023-05-26T07:23:47.817Z,18.19
2023-05-26T07:24:47.738Z,18.28
2023-05-26T07:25:47.660Z,18.33
2023-05-26T07:26:47.598Z,18.28
2023-05-26T07:27:47.503Z,18.35
2023-05-26T07:28:47.446Z,18.26
2023-05-26T07:29:47.352Z,18.37
2023-05-26T07:30:47.495Z,18.31
2023-05-26T07:31:47.237Z,18.38
2023-05-26T07:32:47.134Z,18.44
2023-05-26T07:33:47.044Z,18.52
2023-05-26T07:34:46.983Z,18.55
2023-05-26T07:35:47.108Z,18.53
2023-05-26T07:36:46.815Z,18.60
2023-05-26T07:37:46.740Z,18.59
2023-05-26T07:38:46.662Z,18.66
2023-05-26T07:39:46.602Z,18.74
2023-05-26T07:40:46.500Z,18.63
2023-05-26T07:41:46.423Z,18.78
2023-05-26T07:42:46.358Z,18.80
2023-05-26T07:43:46.272Z,18.73
2023-05-26T07:44:46.191Z,18.84
2023-05-26T07:45:46.268Z,18.80
2023-05-26T07:46:46.061Z,18.80
2023-05-26T07:47:46.029Z,18.83
2023-05-26T07:48:45.889Z,18.86
2023-05-26T07:49:45.834Z,18.84
2023-05-26T07:50:45.986Z,18.86
2023-05-26T07:51:45.659Z,18.90
2023-05-26T07:52:45.591Z,18.93
2023-05-26T07:53:45.515Z,18.90
2023-05-26T07:54:45.428Z,19.00
2023-05-26T07:55:45.440Z,19.04
2023-05-26T07:56:45.273Z,19.02
2023-05-26T07:57:45.204Z,19.09
2023-05-26T07:58:45.123Z,18.98
2023-05-26T07:59:45.044Z,19.12
2023-05-26T08:00:44.979Z,19.12
2023-05-26T08:01:44.892Z,19.24
2023-05-26T08:02:44.901Z,19.16
2023-05-26T08:03:44.792Z,19.24
2023-05-26T08:04:44.667Z,19.19
2023-05-26T08:05:44.787Z,19.29
2023-05-26T08:06:44.508Z,19.26
2023-05-26T08:07:44.433Z,19.30
2023-05-26T08:08:44.358Z,19.30
2023-05-26T08:09:44.282Z,19.34
2023-05-26T08:10:44.221Z,19.34
2023-05-26T08:11:44.137Z,19.34
2023-05-26T08:12:44.053Z,19.44
2023-05-26T08:13:43.969Z,19.45
2023-05-26T08:14:43.897Z,19.48
2023-05-26T08:15:44.000Z,19.41
2023-05-26T08:16:43.802Z,19.45
2023-05-26T08:17:43.737Z,19.54
2023-05-26T08:18:43.595Z,19.59
2023-05-26T08:19:43.522Z,19.62
2023-05-26T08:20:43.488Z,19.55
2023-05-26T08:21:43.368Z,19.59
2023-05-26T08:22:43.289Z,19.62
2023-05-26T08:23:43.213Z,19.69
2023-05-26T08:24:43.143Z,19.71
2023-05-26T08:25:43.256Z,19.79
2023-05-26T08:26:43.858Z,19.81
2023-05-26T08:27:42.927Z,19.76
2023-05-26T08:28:42.841Z,19.84
2023-05-26T08:29:42.760Z,19.85
2023-05-26T08:30:42.685Z,19.94
2023-05-26T08:31:42.630Z,19.89
2023-05-26T08:32:42.557Z,19.94
2023-05-26T08:33:42.469Z,19.91
2023-05-26T08:34:42.384Z,19.95
2023-05-26T08:35:42.301Z,20.02
2023-05-26T08:36:42.231Z,20.03
2023-05-26T08:37:42.152Z,20.10
2023-05-26T08:38:42.076Z,20.06
2023-05-26T08:39:41.997Z,20.11
2023-05-26T08:40:41.926Z,20.14
2023-05-26T08:41:41.839Z,20.16
2023-05-26T08:42:41.773Z,20.10
2023-05-26T08:43:46.463Z,20.14
2023-05-26T08:44:41.613Z,20.26
2023-05-26T08:45:41.542Z,20.24
2023-05-26T08:46:41.496Z,20.16
2023-05-26T08:47:41.410Z,20.18
2023-05-26T08:48:41.311Z,20.25
2023-05-26T08:49:41.234Z,20.21
2023-05-26T08:50:41.159Z,20.37
2023-05-26T08:51:41.082Z,20.41
2023-05-26T08:53:40.964Z,20.40
2023-05-26T08:54:40.856Z,20.41
2023-05-26T08:55:40.780Z,20.41
2023-05-26T08:56:40.696Z,20.44
2023-05-26T08:57:40.626Z,20.47
2023-05-26T08:58:40.551Z,20.50
2023-05-26T08:59:40.482Z,20.51
2023-05-26T09:00:40.395Z,20.44
2023-05-26T09:01:40.528Z,20.58
2023-05-26T09:02:40.263Z,20.62
2023-05-26T09:03:40.192Z,20.56
2023-05-26T09:04:40.096Z,20.74
2023-05-26T09:05:40.034Z,20.72
2023-05-26T09:06:39.938Z,20.67
2023-05-26T09:07:39.873Z,20.77
2023-05-26T09:08:39.793Z,20.69
2023-05-26T09:09:39.720Z,20.74
2023-05-26T09:10:39.637Z,20.77
2023-05-26T09:11:41.642Z,20.81
2023-05-26T09:12:39.493Z,20.78
2023-05-26T09:13:39.410Z,20.75
2023-05-26T09:14:39.338Z,20.82
2023-05-26T09:15:39.296Z,20.90
2023-05-26T09:16:39.230Z,20.90
2023-05-26T09:17:39.111Z,20.92
2023-05-26T09:18:39.068Z,21.00
2023-05-26T09:19:38.966Z,20.96
2023-05-26T09:20:38.998Z,20.97
2023-05-26T09:21:38.809Z,21.03
2023-05-26T09:22:38.737Z,21.11
2023-05-26T09:23:38.663Z,21.07
2023-05-26T09:24:38.583Z,21.14
2023-05-26T09:25:38.510Z,21.14
2023-05-26T09:26:38.436Z,21.20
2023-05-26T09:27:38.353Z,21.15
2023-05-26T09:28:38.283Z,21.20
2023-05-26T09:29:38.204Z,21.29
2023-05-26T09:30:38.166Z,21.24
2023-05-26T09:31:38.060Z,21.27
2023-05-26T09:32:38.046Z,21.36
2023-05-26T09:33:37.909Z,21.32
2023-05-26T09:34:37.844Z,21.45
2023-05-26T09:35:37.759Z,21.43
2023-05-26T09:36:37.683Z,21.48
2023-05-26T09:37:37.609Z,21.54
2023-05-26T09:38:37.547Z,21.57
2023-05-26T09:39:37.470Z,21.50
2023-05-26T09:40:37.418Z,21.48
2023-05-26T09:41:37.316Z,21.55
2023-05-26T09:42:37.244Z,21.64
2023-05-26T09:43:37.166Z,21.60
2023-05-26T09:44:37.083Z,21.73
2023-05-26T09:45:37.038Z,21.73
2023-05-26T09:46:36.956Z,21.72
2023-05-26T09:47:36.892Z,21.72
2023-05-26T09:48:36.799Z,21.79
2023-05-26T09:49:36.708Z,21.82
2023-05-26T09:50:36.637Z,21.89
2023-05-26T09:51:38.790Z,21.80
2023-05-26T09:52:36.485Z,21.98
2023-05-26T09:53:36.408Z,21.99
2023-05-26T09:54:36.332Z,21.92
2023-05-26T09:55:36.270Z,22.06
2023-05-26T09:56:36.184Z,22.07
2023-05-26T09:57:36.110Z,22.06
2023-05-26T09:58:36.035Z,22.00
2023-05-26T09:59:35.957Z,22.20
2023-05-26T10:00:35.908Z,22.13
2023-05-26T10:01:35.856Z,22.17
2023-05-26T10:02:35.762Z,22.13
2023-05-26T10:03:35.659Z,22.20
2023-05-26T10:04:35.588Z,22.15
2023-05-26T10:05:35.698Z,22.20
2023-05-26T10:06:35.437Z,22.25
2023-05-26T10:07:35.361Z,22.29
2023-05-26T10:08:35.284Z,22.14
2023-05-26T10:09:35.218Z,22.23
2023-05-26T10:10:35.136Z,22.23
2023-05-26T10:11:35.060Z,22.29
2023-05-26T10:12:34.989Z,22.26
2023-05-26T10:13:34.923Z,22.30
2023-05-26T10:14:34.832Z,22.26
2023-05-26T10:15:34.776Z,22.32
2023-05-26T10:16:34.740Z,22.32
2023-05-26T10:17:34.665Z,22.29
2023-05-26T10:18:34.539Z,22.35
2023-05-26T10:19:34.467Z,22.36
2023-05-26T10:20:34.472Z,22.33
2023-05-26T10:21:34.313Z,22.39
2023-05-26T10:22:34.254Z,22.47
2023-05-26T10:23:35.428Z,22.43
2023-05-26T10:24:34.100Z,22.54
2023-05-26T10:25:34.019Z,22.45
2023-05-26T10:26:33.946Z,22.48
2023-05-26T10:27:33.868Z,22.53
2023-05-26T10:28:33.797Z,22.57
2023-05-26T10:29:33.726Z,22.55
2023-05-26T10:30:33.640Z,22.62
2023-05-26T10:31:33.633Z,22.62
2023-05-26T10:32:33.540Z,22.69
2023-05-26T10:33:33.430Z,22.80
2023-05-26T10:34:33.356Z,22.84
2023-05-26T10:35:33.272Z,22.93
2023-05-26T10:36:33.208Z,23.03
2023-05-26T10:37:33.129Z,23.00
2023-05-26T10:38:33.069Z,23.21
2023-05-26T10:39:32.980Z,23.18
2023-05-26T10:40:32.904Z,23.28
2023-05-26T10:41:32.834Z,23.32
2023-05-26T10:42:32.754Z,23.41
2023-05-26T10:43:32.690Z,23.37
2023-05-26T10:44:32.605Z,23.39
2023-05-26T10:45:32.535Z,23.34
2023-05-26T10:46:32.506Z,23.31
2023-05-26T10:47:32.431Z,23.32
2023-05-26T10:48:32.313Z,23.15
2023-05-26T10:49:32.244Z,23.20
2023-05-26T10:50:32.179Z,23.23
2023-05-26T10:51:32.099Z,23.18
2023-05-26T10:52:32.027Z,23.18
2023-05-26T10:53:31.945Z,23.18
2023-05-26T10:54:31.882Z,23.21
2023-05-26T10:55:31.814Z,23.24
2023-05-26T10:56:31.727Z,23.37
2023-05-26T10:57:31.653Z,23.47
2023-05-26T10:58:31.584Z,23.50
2023-05-26T10:59:31.505Z,23.50
2023-05-26T11:00:31.459Z,23.62
2023-05-26T11:01:31.405Z,23.71
2023-05-26T11:02:31.312Z,23.78
2023-05-26T11:03:31.249Z,23.86
2023-05-26T11:04:31.134Z,23.91
2023-05-26T11:05:31.058Z,23.92
2023-05-26T11:06:30.988Z,24.03
2023-05-26T11:07:30.998Z,24.02
2023-05-26T11:08:30.842Z,24.03
2023-05-26T11:09:30.778Z,23.98
2023-05-26T11:10:30.959Z,23.92
2023-05-26T11:11:30.637Z,23.92
2023-05-26T11:12:30.543Z,23.92
2023-05-26T11:13:30.477Z,23.93
2023-05-26T11:14:30.407Z,23.86
2023-05-26T11:15:30.327Z,23.95
2023-05-26T11:16:30.289Z,23.96
2023-05-26T11:17:30.217Z,24.01
2023-05-26T11:18:30.118Z,23.98
2023-05-26T11:19:30.039Z,24.01
2023-05-26T11:20:30.016Z,24.05
2023-05-26T11:21:29.891Z,24.05
2023-05-26T11:22:29.819Z,24.02
2023-05-26T11:23:29.762Z,24.05
2023-05-26T11:24:29.694Z,23.99
2023-05-26T11:25:29.643Z,24.13
2023-05-26T11:26:29.546Z,24.14
2023-05-26T11:27:29.463Z,24.13
2023-05-26T11:28:29.380Z,24.14
2023-05-26T11:29:29.361Z,24.18
2023-05-26T11:30:29.243Z,24.26
2023-05-26T11:31:29.196Z,24.38
2023-05-26T11:32:29.162Z,24.24
2023-05-26T11:33:29.028Z,24.39
2023-05-26T11:34:28.952Z,24.38
2023-05-26T11:35:28.882Z,24.35
2023-05-26T11:36:28.804Z,24.42
2023-05-26T11:37:28.731Z,24.57
2023-05-26T11:38:28.670Z,24.54
2023-05-26T11:39:28.584Z,24.61
2023-05-26T11:40:28.521Z,24.69
2023-05-26T11:41:28.561Z,24.69
2023-05-26T11:42:28.372Z,24.84
2023-05-26T11:43:28.309Z,24.89
2023-05-26T11:44:28.223Z,24.81
2023-05-26T11:45:28.151Z,24.89
2023-05-26T11:46:28.137Z,24.91
2023-05-26T11:47:28.086Z,24.93
2023-05-26T11:48:27.952Z,24.91
2023-05-26T11:49:27.867Z,24.92
2023-05-26T11:50:27.796Z,24.88
2023-05-26T11:51:27.726Z,24.92
2023-05-26T11:52:27.661Z,24.86
2023-05-26T11:53:27.614Z,24.85
2023-05-26T11:54:27.505Z,24.86
2023-05-26T11:55:27.432Z,24.96
2023-05-26T11:56:27.362Z,25.01
2023-05-26T11:57:27.289Z,25.11
2023-05-26T11:58:27.214Z,25.22
2023-05-26T11:59:27.166Z,25.33
2023-05-26T12:00:27.074Z,25.35
2023-05-26T12:01:27.027Z,25.47
2023-05-26T12:02:27.057Z,25.50
2023-05-26T12:03:26.938Z,25.53
2023-05-26T12:04:26.898Z,25.53
2023-05-26T12:05:26.713Z,25.58
2023-05-26T12:06:26.652Z,25.46
2023-05-26T12:07:26.571Z,25.55
2023-05-26T12:08:26.510Z,25.47
2023-05-26T12:09:26.423Z,25.36
2023-05-26T12:10:26.357Z,25.44
2023-05-26T12:11:26.298Z,25.43
2023-05-26T12:12:26.228Z,25.33
2023-05-26T12:13:26.151Z,25.28
2023-05-26T12:14:26.078Z,25.28
2023-05-26T12:15:26.004Z,25.14
2023-05-26T12:16:25.983Z,25.18
2023-05-26T12:17:25.858Z,25.13
2023-05-26T12:18:25.782Z,25.07
2023-05-26T12:19:25.710Z,25.04
2023-05-26T12:20:42.594Z,24.98
2023-05-26T12:21:25.576Z,24.98
2023-05-26T12:22:25.496Z,25.07
2023-05-26T12:23:25.439Z,24.81
2023-05-26T12:24:25.353Z,24.88
2023-05-26T12:25:25.294Z,24.88
2023-05-26T12:26:25.211Z,24.92
2023-05-26T12:27:25.138Z,24.91
2023-05-26T12:28:25.070Z,24.89
2023-05-26T12:29:25.001Z,25.08
2023-05-26T12:30:30.509Z,25.10
2023-05-26T12:31:24.882Z,25.28
2023-05-26T12:32:24.806Z,25.41
2023-05-26T12:33:24.706Z,25.53
2023-05-26T12:34:24.649Z,25.55
2023-05-26T12:35:24.570Z,25.72
2023-05-26T12:36:24.500Z,25.78
2023-05-26T12:37:24.422Z,25.80
2023-05-26T12:38:24.347Z,25.87
2023-05-26T12:39:24.279Z,25.84
2023-05-26T12:40:24.206Z,26.02
2023-05-26T12:41:24.132Z,26.02
2023-05-26T12:42:24.064Z,25.98
2023-05-26T12:43:23.996Z,26.05
2023-05-26T12:44:23.936Z,26.19
2023-05-26T12:45:23.850Z,26.29
2023-05-26T12:46:23.778Z,26.43
2023-05-26T12:47:23.734Z,26.51
2023-05-26T12:48:23.761Z,26.52
2023-05-26T12:49:23.563Z,26.38
2023-05-26T12:50:23.503Z,26.26
2023-05-26T12:51:23.426Z,26.06
2023-05-26T12:52:23.353Z,26.07